Time;durP1;ratioP1;P1;durP2;ratioP2;P2;SDS_P1;SDS_P2;PMS_P1;PMS_P2;Temp;Humidity;BMP_temperature;BMP_pressure;BME280_temperature;BME280_humidity;BME280_pressure;Samples;Min_cycle;Max_cycle;Signal;HPM_P1;HPM_P2
2021/03/13 00:00:27;;;;;;;12.38;4.72;;;;;;;24.01;48.75;99063.84;5092509;28;20055;-61
2021/03/13 00:02:53;;;;;;;16.10;4.88;;;;;;;23.83;49.49;99064.13;5092437;28;20028;-61
2021/03/13 00:05:26;;;;;;;14.02;5.10;;;;;;;23.79;48.57;99071.19;5092680;28;20146;-62
2021/03/13 00:07:51;;;;;;;13.82;4.95;;;;;;;23.70;46.83;99063.41;5091876;28;20551;-62
2021/03/13 00:10:18;;;;;;;15.70;4.45;;;;;;;23.67;46.39;99063.88;5092432;28;20107;-61
2021/03/13 00:12:43;;;;;;;11.65;4.25;;;;;;;23.62;46.21;99073.94;5092874;28;20101;-62
2021/03/13 00:15:13;;;;;;;14.40;5.00;;;;;;;23.59;46.69;99072.53;5092332;28;20063;-61
2021/03/13 00:17:39;;;;;;;12.82;4.22;;;;;;;23.60;46.24;99071.44;5092492;28;20020;-61
2021/03/13 00:20:05;;;;;;;12.77;5.03;;;;;;;23.64;47.77;99072.59;5092215;28;20435;-62
2021/03/13 00:22:30;;;;;;;12.45;4.18;;;;;;;23.58;46.06;99075.50;5092335;28;20036;-61
2021/03/13 00:24:55;;;;;;;14.35;5.00;;;;;;;23.58;45.40;99076.34;5092269;28;20466;-62
2021/03/13 00:27:21;;;;;;;14.88;5.05;;;;;;;23.56;45.46;99072.16;5092423;28;20031;-61
2021/03/13 00:29:46;;;;;;;16.00;5.05;;;;;;;23.51;46.99;99075.63;5092405;28;20032;-61
2021/03/13 00:32:11;;;;;;;11.65;4.53;;;;;;;23.49;46.32;99076.94;5090821;28;20123;-62
2021/03/13 00:34:36;;;;;;;15.45;5.10;;;;;;;23.50;48.32;99073.13;5092382;28;20050;-62
2021/03/13 00:37:02;;;;;;;13.77;4.43;;;;;;;23.49;45.68;99075.03;5095149;28;20559;-61
2021/03/13 00:39:27;;;;;;;12.63;4.32;;;;;;;23.48;45.11;99070.63;5095358;28;20073;-61
2021/03/13 00:41:52;;;;;;;14.38;4.90;;;;;;;23.45;45.21;99071.13;5083289;28;20463;-62
2021/03/13 00:44:19;;;;;;;12.43;4.47;;;;;;;23.44;47.27;99069.47;5076002;28;20028;-61
2021/03/13 00:46:45;;;;;;;13.55;4.47;;;;;;;23.39;46.53;99078.44;5075888;28;20123;-61
2021/03/13 00:49:10;;;;;;;13.50;4.50;;;;;;;23.41;46.50;99072.72;5075627;28;20024;-61
2021/03/13 00:51:35;;;;;;;17.85;5.35;;;;;;;23.43;48.48;99070.56;5075866;28;20428;-61
2021/03/13 00:54:01;;;;;;;16.85;5.10;;;;;;;23.38;47.20;99075.97;5075072;28;20382;-60
2021/03/13 00:56:26;;;;;;;17.45;4.97;;;;;;;23.45;47.48;99071.13;5075531;28;20055;-61
2021/03/13 00:58:52;;;;;;;14.98;4.80;;;;;;;23.42;48.10;99077.13;5075479;28;20029;-61
2021/03/13 01:01:17;;;;;;;13.25;4.72;;;;;;;23.39;48.67;99077.63;5084123;28;20020;-61
2021/03/13 01:03:42;;;;;;;13.25;4.50;;;;;;;23.43;49.39;99084.25;5095809;28;20031;-61
2021/03/13 01:06:08;;;;;;;12.30;3.85;;;;;;;23.42;49.36;99088.91;5095544;28;20111;-61
2021/03/13 01:08:33;;;;;;;13.27;4.60;;;;;;;23.46;48.46;99075.53;5094549;28;20028;-60
2021/03/13 01:10:59;;;;;;;14.20;4.15;;;;;;;23.44;49.06;99083.19;5095454;28;20035;-62
2021/03/13 01:13:24;;;;;;;12.85;4.45;;;;;;;23.47;48.23;99081.84;5095532;28;20034;-62
2021/03/13 01:15:50;;;;;;;13.50;4.57;;;;;;;23.45;48.11;99082.09;5095444;28;20111;-61
2021/03/13 01:18:18;;;;;;;11.85;4.88;;;;;;;23.48;48.78;99086.25;5095262;28;20024;-61
2021/03/13 01:20:45;;;;;;;11.65;3.95;;;;;;;23.53;47.86;99083.63;5095469;28;20566;-62
2021/03/13 01:23:10;;;;;;;16.70;5.43;;;;;;;23.50;48.27;99087.66;5095311;28;20126;-61
2021/03/13 01:25:36;;;;;;;14.98;4.55;;;;;;;23.50;48.06;99090.41;5095443;28;20514;-62
2021/03/13 01:28:01;;;;;;;12.77;4.00;;;;;;;23.51;49.37;99083.03;5095097;28;20031;-60
2021/03/13 01:30:26;;;;;;;14.05;5.20;;;;;;;23.51;50.11;99097.56;5095204;28;20024;-61
2021/03/13 01:32:53;;;;;;;15.25;5.47;;;;;;;23.53;51.00;99089.94;5095126;28;20047;-61
2021/03/13 01:35:19;;;;;;;13.02;4.65;;;;;;;23.60;51.05;99090.63;5095149;28;20103;-61
2021/03/13 01:37:44;;;;;;;16.00;5.53;;;;;;;23.59;51.24;99083.50;5089551;28;20032;-61
2021/03/13 01:40:15;;;;;;;11.75;4.72;;;;;;;23.60;49.90;99090.63;5074660;28;20029;-61
2021/03/13 01:42:50;;;;;;;13.18;4.60;;;;;;;23.48;50.81;99083.53;5074178;28;20375;-61
2021/03/13 01:45:20;;;;;;;16.27;4.22;;;;;;;23.33;49.40;99084.06;5074763;28;20019;-61
2021/03/13 01:47:47;;;;;;;13.20;4.75;;;;;;;23.27;48.31;99085.06;5074266;28;20032;-61
2021/03/13 01:50:17;;;;;;;11.82;5.00;;;;;;;23.25;48.93;99087.22;5074375;28;20399;-60
2021/03/13 01:52:42;;;;;;;16.60;4.28;;;;;;;23.16;47.12;99089.50;5074298;28;20486;-62
2021/03/13 01:55:09;;;;;;;13.70;4.97;;;;;;;23.17;47.41;99090.34;5087912;28;20068;-61
2021/03/13 01:57:35;;;;;;;15.45;4.93;;;;;;;23.10;47.07;99091.34;5094830;28;20059;-60
2021/03/13 02:00:01;;;;;;;13.57;4.18;;;;;;;23.12;46.87;99088.34;5094404;28;20455;-60
2021/03/13 02:02:26;;;;;;;13.30;5.32;;;;;;;23.17;48.98;99084.84;5094844;28;20027;-61
2021/03/13 02:04:51;;;;;;;16.35;5.45;;;;;;;23.16;47.42;99089.50;5094562;28;20024;-61
2021/03/13 02:07:24;;;;;;;14.75;4.68;;;;;;;23.12;47.35;99096.56;5092926;28;20035;-61
2021/03/13 02:09:53;;;;;;;13.05;4.65;;;;;;;23.14;46.53;99085.34;5074194;28;20032;-61
2021/03/13 02:12:52;;;;;;;13.80;4.35;;;;;;;23.14;50.07;99085.34;5074020;28;20028;-61
2021/03/13 02:15:41;;;;;;;15.40;5.15;;;;;;;23.13;46.48;99083.69;5074184;28;20111;-61
2021/03/13 02:18:23;;;;;;;12.70;4.45;;;;;;;23.15;46.92;99082.38;5074973;28;20028;-61
2021/03/13 02:21:07;;;;;;;11.93;4.53;;;;;;;23.13;46.14;99086.44;5073981;28;20151;-61
2021/03/13 02:23:53;;;;;;;13.20;3.88;;;;;;;23.11;46.18;99068.31;5074060;28;20463;-61
2021/03/13 02:26:36;;;;;;;11.13;4.40;;;;;;;23.13;46.12;99080.94;5073785;28;20115;-61
2021/03/13 02:29:46;;;;;;;13.10;4.85;;;;;;;23.10;46.41;99080.38;5072404;28;20461;-62
2021/03/13 02:32:20;;;;;;;11.65;3.92;;;;;;;23.05;46.92;99082.19;5011388;28;20112;-61
2021/03/13 02:34:46;;;;;;;12.80;4.75;;;;;;;23.08;46.33;99081.69;5011620;28;20030;-61
2021/03/13 02:37:21;;;;;;;17.73;5.00;;;;;;;23.11;46.09;99075.72;5011325;28;20493;-62
2021/03/13 02:39:49;;;;;;;13.30;4.60;;;;;;;23.09;45.80;99073.22;5031419;28;20164;-61
2021/03/13 02:42:15;;;;;;;13.65;5.03;;;;;;;23.06;46.04;99076.47;5031068;28;20061;-61
2021/03/13 02:44:43;;;;;;;17.27;4.75;;;;;;;23.04;45.62;99081.34;5014769;28;20180;-62
2021/03/13 02:47:10;;;;;;;12.52;4.25;;;;;;;23.10;46.68;99083.09;5031183;28;20033;-61
2021/03/13 02:49:37;;;;;;;12.63;4.32;;;;;;;23.16;46.46;99083.19;5031290;28;20396;-62
2021/03/13 02:52:05;;;;;;;14.88;4.55;;;;;;;23.13;45.84;99089.19;5014341;28;20021;-62
2021/03/13 02:54:33;;;;;;;14.77;4.20;;;;;;;23.15;46.67;99071.41;5030828;28;20089;-62
2021/03/13 02:56:59;;;;;;;12.15;4.28;;;;;;;23.10;46.47;99077.63;5027759;28;20045;-61
2021/03/13 02:59:27;;;;;;;18.77;5.60;;;;;;;23.11;46.66;99093.00;5030212;28;20036;-62
2021/03/13 03:01:55;;;;;;;12.15;4.47;;;;;;;23.17;47.05;99082.94;5036948;28;20494;-61
2021/03/13 03:04:22;;;;;;;11.45;3.90;;;;;;;23.17;47.40;99079.38;5093492;28;20032;-62
2021/03/13 03:06:51;;;;;;;13.35;4.68;;;;;;;23.15;48.05;99093.31;5094058;28;20020;-62
2021/03/13 03:09:18;;;;;;;10.60;4.10;;;;;;;23.17;49.23;99080.22;5092925;28;20036;-62
2021/03/13 03:11:44;;;;;;;14.77;4.25;;;;;;;23.19;48.80;99083.56;5093206;28;20097;-62
2021/03/13 03:14:15;;;;;;;13.07;4.30;;;;;;;23.22;48.87;99076.75;5093480;28;20031;-62
2021/03/13 03:16:43;;;;;;;12.52;4.60;;;;;;;23.22;48.88;99074.00;5093265;28;20145;-61
2021/03/13 03:19:09;;;;;;;12.90;4.00;;;;;;;23.24;48.46;99080.06;5093186;28;20109;-62
2021/03/13 03:21:35;;;;;;;13.35;4.40;;;;;;;23.19;48.41;99077.25;5093304;28;20482;-61
2021/03/13 03:24:01;;;;;;;13.85;4.95;;;;;;;23.21;50.30;99080.56;5092954;28;20030;-62
2021/03/13 03:26:26;;;;;;;14.20;4.57;;;;;;;23.22;50.58;99079.50;5092913;28;20032;-62
2021/03/13 03:28:52;;;;;;;15.82;5.50;;;;;;;23.30;52.15;99076.34;5092978;28;20076;-62
2021/03/13 03:31:17;;;;;;;17.65;5.72;;;;;;;23.37;51.96;99079.78;5093090;28;20061;-62
2021/03/13 03:33:43;;;;;;;13.93;5.72;;;;;;;23.41;52.87;99075.47;5092950;28;20104;-61
2021/03/13 03:36:10;;;;;;;16.33;5.35;;;;;;;23.46;51.76;99077.44;5092839;28;20027;-61
2021/03/13 03:38:37;;;;;;;17.00;5.05;;;;;;;23.45;51.64;99079.38;5092253;28;20458;-61
2021/03/13 03:41:03;;;;;;;12.25;5.03;;;;;;;23.21;51.39;99080.56;5091723;28;20032;-62
2021/03/13 03:43:35;;;;;;;13.75;4.53;;;;;;;23.11;52.09;99075.72;5112957;28;20450;-61
2021/03/13 03:46:04;;;;;;;17.63;4.88;;;;;;;23.03;50.46;99087.91;5113346;28;20054;-62
2021/03/13 03:48:30;;;;;;;14.52;4.68;;;;;;;22.96;49.51;99087.22;5113050;28;20035;-61
2021/03/13 03:50:56;;;;;;;12.45;4.32;;;;;;;22.98;48.33;99082.31;5112957;28;20032;-62
2021/03/13 03:53:32;;;;;;;13.55;4.22;;;;;;;22.89;48.60;99077.47;5113007;28;20086;-61
2021/03/13 03:55:59;;;;;;;13.27;4.70;;;;;;;22.90;48.43;99090.09;5112899;27;20027;-61
2021/03/13 03:58:36;;;;;;;13.98;5.25;;;;;;;22.88;49.79;99092.25;5113009;28;20157;-61
2021/03/13 04:01:02;;;;;;;13.43;4.28;;;;;;;22.86;46.71;99084.28;5112828;28;20055;-62
2021/03/13 04:03:29;;;;;;;12.65;4.43;;;;;;;22.81;47.80;99086.88;5113110;28;20055;-61
2021/03/13 04:05:55;;;;;;;12.90;4.25;;;;;;;22.79;47.30;99084.38;5112843;28;20111;-62
2021/03/13 04:08:21;;;;;;;13.52;4.88;;;;;;;22.85;47.47;99085.34;5099559;28;20584;-61
2021/03/13 04:10:50;;;;;;;14.43;4.30;;;;;;;22.81;47.03;99097.81;5095417;28;20027;-62
2021/03/13 04:13:16;;;;;;;12.30;4.30;;;;;;;22.76;46.96;99084.88;5096685;28;20024;-61
2021/03/13 04:15:44;;;;;;;11.05;4.05;;;;;;;22.78;47.47;99092.84;5096795;28;20020;-61
2021/03/13 04:18:10;;;;;;;13.48;4.05;;;;;;;22.91;48.80;99092.59;5096559;28;20028;-62
2021/03/13 04:20:37;;;;;;;12.70;5.10;;;;;;;22.81;47.57;99086.88;5096572;28;20028;-61
2021/03/13 04:23:03;;;;;;;10.93;3.97;;;;;;;22.85;47.24;99093.56;5096455;28;20020;-62
2021/03/13 04:25:30;;;;;;;10.52;4.20;;;;;;;22.79;47.10;99083.53;5096502;28;20031;-61
2021/03/13 04:27:56;;;;;;;13.57;4.90;;;;;;;22.85;48.29;99088.09;5096337;28;20471;-61
2021/03/13 04:30:22;;;;;;;14.55;5.00;;;;;;;22.83;48.29;99090.22;5096345;28;20035;-61
2021/03/13 04:32:51;;;;;;;12.70;4.82;;;;;;;22.80;47.65;99088.78;5096396;28;20103;-61
2021/03/13 04:35:18;;;;;;;16.70;5.63;;;;;;;22.79;49.16;99081.63;5096303;28;20115;-61
2021/03/13 04:37:44;;;;;;;9.65;3.70;;;;;;;22.90;48.82;99096.41;5095639;28;20373;-62
2021/03/13 04:40:11;;;;;;;14.30;4.32;;;;;;;22.83;49.31;99095.69;5096103;28;20024;-61
2021/03/13 04:42:38;;;;;;;13.30;4.80;;;;;;;22.79;49.45;99094.50;5096151;28;20020;-62
2021/03/13 04:45:06;;;;;;;12.55;4.32;;;;;;;22.77;46.54;99100.22;5096071;28;20035;-61
2021/03/13 04:47:31;;;;;;;15.38;4.82;;;;;;;22.78;45.88;99092.84;5096121;28;20024;-61
2021/03/13 04:49:58;;;;;;;15.13;4.57;;;;;;;22.78;46.35;99098.31;5095943;28;20511;-61
2021/03/13 04:52:23;;;;;;;10.95;4.45;;;;;;;22.75;48.19;99098.81;5095948;28;20382;-61
2021/03/13 04:54:49;;;;;;;15.63;4.10;;;;;;;22.77;45.88;99088.44;5095698;28;20474;-61
2021/03/13 04:57:15;;;;;;;10.77;4.13;;;;;;;22.78;46.53;99098.31;5095826;28;20119;-61
2021/03/13 04:59:41;;;;;;;11.57;4.28;;;;;;;22.79;47.59;99094.50;5095964;28;20099;-61
2021/03/13 05:02:06;;;;;;;10.77;3.60;;;;;;;23.54;45.49;99099.84;5095632;28;20495;-61
2021/03/13 05:04:31;;;;;;;11.80;4.40;;;;;;;24.28;45.00;99100.50;5095731;28;20024;-62
2021/03/13 05:06:57;;;;;;;15.00;4.60;;;;;;;24.57;43.97;99095.75;5094881;28;20058;-61
2021/03/13 05:09:22;;;;;;;11.40;4.05;;;;;;;24.83;43.54;99093.31;5095849;28;20107;-61
2021/03/13 05:11:47;;;;;;;15.85;5.00;;;;;;;24.99;44.95;99097.09;5095635;28;20146;-61
2021/03/13 05:14:12;;;;;;;12.35;4.60;;;;;;;25.21;46.52;99095.19;5095363;28;20024;-62
2021/03/13 05:16:38;;;;;;;13.93;4.55;;;;;;;25.29;45.26;99094.72;5095713;28;20089;-61
2021/03/13 05:19:03;;;;;;;18.45;5.15;;;;;;;25.31;43.86;99094.47;5095340;28;20027;-62
2021/03/13 05:21:28;;;;;;;8.77;3.42;;;;;;;25.37;46.27;99093.44;5095419;28;20028;-61
2021/03/13 05:23:53;;;;;;;14.88;4.30;;;;;;;25.43;44.12;99093.22;5095325;28;20237;-62
2021/03/13 05:26:19;;;;;;;13.55;4.72;;;;;;;25.43;44.92;99103.41;5095328;28;20493;-61
2021/03/13 05:28:44;;;;;;;13.07;4.95;;;;;;;25.49;44.50;99103.16;5095421;28;20028;-62
2021/03/13 05:31:09;;;;;;;18.80;4.53;;;;;;;25.50;46.87;99107.59;5093987;28;20473;-62
2021/03/13 05:33:35;;;;;;;13.57;5.03;;;;;;;25.57;45.46;99109.31;5095304;28;20411;-62
2021/03/13 05:36:00;;;;;;;12.07;4.22;;;;;;;25.56;44.88;99107.66;5095011;28;20024;-62
2021/03/13 05:38:25;;;;;;;15.57;4.78;;;;;;;25.74;45.09;99110.06;5080511;28;20100;-62
2021/03/13 05:40:51;;;;;;;14.52;5.07;;;;;;;25.81;44.10;99116.16;5091211;28;20058;-62
2021/03/13 05:43:17;;;;;;;16.05;4.88;;;;;;;25.90;44.98;99108.28;5095054;28;20020;-61
2021/03/13 05:45:44;;;;;;;15.23;4.63;;;;;;;25.92;44.82;99117.09;5095387;28;20409;-61
2021/03/13 05:48:10;;;;;;;13.32;4.82;;;;;;;25.89;42.96;99126.72;5095460;28;20027;-62
2021/03/13 05:50:36;;;;;;;16.77;5.10;;;;;;;25.85;43.61;99125.56;5095267;28;20370;-61
2021/03/13 05:53:03;;;;;;;14.05;4.65;;;;;;;25.96;46.14;99127.31;5093216;28;20051;-61
2021/03/13 05:55:29;;;;;;;13.50;4.53;;;;;;;25.92;45.26;99123.44;5093678;28;20020;-61
2021/03/13 05:57:54;;;;;;;13.63;4.53;;;;;;;25.75;45.07;99123.56;5094608;28;20028;-61
2021/03/13 06:00:21;;;;;;;10.02;3.67;;;;;;;25.53;46.30;99113.66;5093324;28;20451;-61
2021/03/13 06:02:47;;;;;;;13.93;5.32;;;;;;;25.57;46.00;99114.81;5094654;28;20459;-61
2021/03/13 06:05:14;;;;;;;12.25;4.45;;;;;;;25.46;46.08;99120.19;5094879;28;20484;-61
2021/03/13 06:07:41;;;;;;;12.98;4.10;;;;;;;25.31;46.32;99117.28;5084010;28;20028;-61
2021/03/13 06:10:07;;;;;;;11.75;4.25;;;;;;;25.17;46.00;99116.03;5074186;28;20028;-61
2021/03/13 06:12:33;;;;;;;18.27;5.63;;;;;;;25.26;45.57;99114.50;5074267;28;20024;-61
2021/03/13 06:14:58;;;;;;;17.45;4.95;;;;;;;25.35;45.32;99118.44;5074026;28;20027;-61
2021/03/13 06:17:25;;;;;;;9.82;4.00;;;;;;;25.44;44.47;99122.38;5074309;28;20020;-61
2021/03/13 06:19:57;;;;;;;13.02;4.97;;;;;;;25.39;44.53;99125.09;5072822;28;20028;-62
2021/03/13 06:22:37;;;;;;;16.67;5.65;;;;;;;25.37;43.47;99121.78;5074096;28;20456;-61
2021/03/13 06:25:14;;;;;;;17.15;4.95;;;;;;;25.31;44.16;99128.28;5074089;28;20032;-60
2021/03/13 06:27:41;;;;;;;14.73;4.93;;;;;;;25.35;45.17;99123.94;5074137;28;20103;-61
2021/03/13 06:30:08;;;;;;;17.65;4.70;;;;;;;25.35;44.63;99123.94;5073839;28;20029;-61
2021/03/13 06:32:34;;;;;;;13.95;4.32;;;;;;;25.30;45.08;99137.63;5073490;28;20020;-61
2021/03/13 06:35:18;;;;;;;13.30;4.82;;;;;;;25.40;44.22;99126.75;5072941;28;20074;-61
2021/03/13 06:37:43;;;;;;;12.80;4.95;;;;;;;25.25;45.27;99118.34;5084196;28;20024;-61
2021/03/13 06:40:09;;;;;;;16.80;4.88;;;;;;;25.37;44.28;99132.78;5087989;28;20027;-61
2021/03/13 06:42:34;;;;;;;13.65;4.78;;;;;;;25.34;42.78;99125.00;5073761;28;20052;-61
2021/03/13 06:45:02;;;;;;;12.27;4.32;;;;;;;25.35;45.07;99123.09;5073454;28;20098;-61
2021/03/13 06:47:40;;;;;;;14.38;5.10;;;;;;;25.23;42.36;99125.19;5073740;28;20466;-61
2021/03/13 06:50:20;;;;;;;12.02;4.13;;;;;;;25.38;45.00;99128.94;5073452;28;20028;-61
2021/03/13 06:52:49;;;;;;;14.85;5.18;;;;;;;25.39;43.53;99127.00;5073291;28;20470;-61
2021/03/13 06:55:21;;;;;;;14.80;4.53;;;;;;;25.38;44.03;99137.19;5073366;28;20021;-60
2021/03/13 06:57:48;;;;;;;12.73;3.83;;;;;;;25.58;45.95;99138.47;5071953;28;20027;-61
2021/03/13 07:00:46;;;;;;;13.77;4.72;;;;;;;25.59;45.26;99140.16;5083707;28;20367;-61
2021/03/13 07:03:13;;;;;;;14.05;4.72;;;;;;;25.71;44.74;99138.09;5030843;28;20080;-61
2021/03/13 07:05:40;;;;;;;12.98;4.20;;;;;;;25.74;44.49;99138.41;5030948;28;20034;-61
2021/03/13 07:08:28;;;;;;;17.33;5.82;;;;;;;25.70;46.42;99137.28;5030160;28;20360;-61
2021/03/13 07:11:02;;;;;;;14.45;4.68;;;;;;;25.70;45.84;99136.44;5030778;28;20090;-62
2021/03/13 07:13:38;;;;;;;12.30;4.13;;;;;;;25.71;47.28;99132.59;5030897;28;20560;-61
2021/03/13 07:16:31;;;;;;;13.60;4.43;;;;;;;25.82;46.48;99142.59;5030538;28;20436;-61
2021/03/13 07:19:08;;;;;;;10.70;4.18;;;;;;;25.81;46.33;99146.44;5030505;28;20124;-61
2021/03/13 07:21:38;;;;;;;15.05;4.97;;;;;;;25.85;45.75;99150.31;5030821;28;20033;-60
2021/03/13 07:24:06;;;;;;;16.60;5.47;;;;;;;25.85;47.64;99150.31;5030399;28;20109;-61
2021/03/13 07:26:37;;;;;;;10.00;3.90;;;;;;;25.91;48.09;99149.28;5030520;28;20064;-61
2021/03/13 07:29:05;;;;;;;17.25;5.15;;;;;;;25.95;46.98;99160.59;5030369;28;20025;-61
2021/03/13 07:31:34;;;;;;;15.45;4.68;;;;;;;25.95;46.23;99155.09;5030615;28;20034;-61
2021/03/13 07:34:01;;;;;;;17.52;6.00;;;;;;;25.96;45.25;99154.84;5013698;28;20029;-62
2021/03/13 07:36:27;;;;;;;12.95;4.35;;;;;;;25.95;46.29;99158.69;5028058;28;20052;-61
2021/03/13 07:38:58;;;;;;;12.80;4.45;;;;;;;25.98;46.18;99160.91;5050037;28;20119;-61
2021/03/13 07:41:24;;;;;;;11.82;4.15;;;;;;;25.95;47.21;99161.44;5085703;28;20039;-61
2021/03/13 07:43:50;;;;;;;13.63;5.05;;;;;;;26.01;44.97;99154.88;5092817;28;20020;-61
2021/03/13 07:46:16;;;;;;;12.70;5.13;;;;;;;25.98;47.60;99147.16;5092342;28;20094;-61
2021/03/13 07:48:42;;;;;;;14.30;4.85;;;;;;;25.96;45.42;99152.09;5093185;28;20027;-61
2021/03/13 07:51:08;;;;;;;12.93;4.70;;;;;;;26.02;44.32;99162.03;5092659;28;20020;-61
2021/03/13 07:53:40;;;;;;;13.85;5.32;;;;;;;26.01;44.17;99154.88;5092612;28;20039;-62
2021/03/13 07:56:11;;;;;;;16.25;4.70;;;;;;;25.99;45.19;99158.97;5092774;28;20056;-61
2021/03/13 07:58:38;;;;;;;14.57;5.57;;;;;;;26.01;45.45;99157.63;5092771;28;20028;-62
2021/03/13 08:01:03;;;;;;;12.75;4.78;;;;;;;26.02;45.20;99156.53;5091566;28;20028;-61
2021/03/13 08:03:38;;;;;;;11.80;4.78;;;;;;;26.08;46.05;99161.00;5092819;28;20345;-61
2021/03/13 08:06:11;;;;;;;13.82;4.78;;;;;;;26.02;44.57;99162.03;5092418;28;20070;-61
2021/03/13 08:08:48;;;;;;;14.53;4.70;;;;;;;26.06;45.07;99157.69;5073041;28;20115;-61
2021/03/13 08:11:18;;;;;;;14.07;4.78;;;;;;;26.17;45.30;99163.25;5072718;28;20043;-60
2021/03/13 08:13:49;;;;;;;12.68;4.43;;;;;;;26.14;47.47;99158.28;5092614;28;20024;-61
2021/03/13 08:16:19;;;;;;;14.30;4.60;;;;;;;26.20;44.93;99157.22;5092225;28;20026;-61
2021/03/13 08:18:57;;;;;;;11.65;4.60;;;;;;;26.17;45.99;99152.25;5092621;28;20035;-61
2021/03/13 08:21:22;;;;;;;12.50;4.50;;;;;;;26.23;42.33;99156.72;5092634;28;20024;-61
2021/03/13 08:23:48;;;;;;;15.57;4.77;;;;;;;26.30;43.79;99154.56;5092484;28;20028;-61
2021/03/13 08:26:14;;;;;;;16.45;5.68;;;;;;;26.28;42.92;99148.50;5092304;28;20773;-61
2021/03/13 08:28:48;;;;;;;14.23;4.85;;;;;;;26.28;45.39;99145.75;5092507;28;20031;-61
2021/03/13 08:31:29;;;;;;;14.18;4.93;;;;;;;26.17;46.68;99158.59;5092423;28;20111;-61
2021/03/13 08:34:01;;;;;;;16.95;4.70;;;;;;;25.91;46.39;99160.31;5092431;28;20028;-61
2021/03/13 08:36:29;;;;;;;15.35;4.65;;;;;;;25.73;46.68;99164.28;5091194;28;20016;-62
2021/03/13 08:38:54;;;;;;;13.07;4.35;;;;;;;25.66;45.49;99158.09;5092089;28;20034;-62
2021/03/13 08:41:44;;;;;;;14.85;4.93;;;;;;;25.57;45.23;99156.09;5072464;28;20032;-61
2021/03/13 08:44:16;;;;;;;13.57;5.18;;;;;;;25.62;46.10;99161.63;5072344;28;20070;-61
2021/03/13 08:46:51;;;;;;;12.10;4.45;;;;;;;25.66;45.92;99157.25;5072126;28;20024;-62
2021/03/13 08:49:26;;;;;;;15.00;4.85;;;;;;;25.68;44.44;99160.63;5080713;28;20028;-61
2021/03/13 08:52:06;;;;;;;17.17;5.72;;;;;;;25.63;44.72;99157.78;5092168;28;20489;-61
2021/03/13 08:54:54;;;;;;;13.88;5.10;;;;;;;25.64;43.35;99148.44;5091901;28;20079;-60
2021/03/13 08:57:25;;;;;;;12.38;4.53;;;;;;;25.63;42.71;99157.78;5092774;28;20040;-61
2021/03/13 08:59:53;;;;;;;14.55;4.75;;;;;;;25.49;42.58;99158.19;5095807;28;20493;-61
2021/03/13 09:02:28;;;;;;;15.00;4.50;;;;;;;25.59;43.13;99151.16;5095704;28;20028;-61
2021/03/13 09:05:03;;;;;;;13.23;3.80;;;;;;;25.49;45.89;99151.88;5095660;28;20024;-61
2021/03/13 09:07:28;;;;;;;15.85;4.22;;;;;;;25.48;45.07;99152.94;5095036;28;20020;-61
2021/03/13 09:09:56;;;;;;;12.45;4.65;;;;;;;25.52;45.77;99161.50;5085854;28;20030;-61
2021/03/13 09:12:23;;;;;;;11.60;4.47;;;;;;;25.55;44.82;99152.78;5095950;28;20127;-62
2021/03/13 09:14:57;;;;;;;14.75;4.63;;;;;;;25.56;46.85;99146.16;5095548;28;20099;-61
2021/03/13 09:17:34;;;;;;;15.00;4.60;;;;;;;25.68;45.13;99149.59;5095675;28;20028;-62
2021/03/13 09:20:26;;;;;;;12.35;4.40;;;;;;;25.79;45.49;99148.63;5095320;28;20036;-62
2021/03/13 09:22:51;;;;;;;17.13;5.10;;;;;;;25.83;46.00;99146.19;5091329;28;20040;-62
2021/03/13 09:25:21;;;;;;;12.27;4.40;;;;;;;25.85;48.17;99144.00;5095337;28;20104;-61
2021/03/13 09:27:50;;;;;;;13.32;4.43;;;;;;;25.98;45.64;99146.31;5095401;28;20439;-62
2021/03/13 09:30:18;;;;;;;13.45;4.82;;;;;;;25.95;45.99;99147.66;5095117;28;20055;-60
2021/03/13 09:32:47;;;;;;;12.88;4.38;;;;;;;25.90;46.37;99155.06;5095514;28;20020;-61
2021/03/13 09:35:14;;;;;;;14.30;5.05;;;;;;;25.99;46.04;99140.53;5095049;28;20077;-61
2021/03/13 09:37:41;;;;;;;13.43;4.82;;;;;;;26.07;45.36;99142.84;5078461;28;20032;-62
2021/03/13 09:40:15;;;;;;;13.70;4.82;;;;;;;26.01;47.60;99141.09;5074735;28;20079;-61
2021/03/13 09:42:42;;;;;;;11.00;4.10;;;;;;;25.98;47.43;99149.06;5074934;28;20396;-61
2021/03/13 09:45:28;;;;;;;15.07;5.30;;;;;;;25.97;45.49;99142.72;5074599;28;20033;-62
2021/03/13 09:47:58;;;;;;;13.00;4.78;;;;;;;26.01;46.16;99149.38;5074244;28;20499;-63
2021/03/13 09:50:34;;;;;;;15.43;5.30;;;;;;;26.01;45.95;99138.34;5074655;28;20107;-61
2021/03/13 09:53:01;;;;;;;14.80;5.38;;;;;;;26.00;46.40;99142.19;5074275;28;20040;-61
2021/03/13 09:55:28;;;;;;;13.65;4.88;;;;;;;26.02;45.38;99134.50;5074660;28;20464;-61
2021/03/13 09:57:55;;;;;;;13.00;5.05;;;;;;;26.05;46.91;99144.19;5074417;28;20032;-61
2021/03/13 10:00:24;;;;;;;15.82;5.15;;;;;;;26.02;44.05;99134.50;5074341;28;20036;-61
2021/03/13 10:02:51;;;;;;;12.25;4.28;;;;;;;26.09;43.88;99142.56;5074469;28;20016;-61
2021/03/13 10:05:19;;;;;;;12.27;4.70;;;;;;;26.05;45.62;99136.75;5080539;28;20479;-62
2021/03/13 10:07:46;;;;;;;12.00;4.45;;;;;;;26.14;45.20;99130.75;5094366;28;20035;-61
2021/03/13 10:10:23;;;;;;;12.80;4.68;;;;;;;26.12;44.97;99136.53;5094510;28;20055;-63
2021/03/13 10:12:59;;;;;;;14.23;4.63;;;;;;;26.08;45.86;99136.22;5094515;28;20024;-61
2021/03/13 10:15:26;;;;;;;14.88;4.15;;;;;;;26.06;44.12;99141.16;5094562;28;20028;-62
2021/03/13 10:18:13;;;;;;;12.30;4.75;;;;;;;26.14;43.79;99130.75;5094240;28;20110;-61
2021/03/13 10:20:45;;;;;;;11.52;4.68;;;;;;;26.15;46.16;99135.16;5094476;28;20028;-62
2021/03/13 10:23:13;;;;;;;19.90;5.22;;;;;;;26.11;45.74;99136.78;5094260;28;20417;-61
2021/03/13 10:25:41;;;;;;;13.27;4.20;;;;;;;26.12;44.68;99132.94;5094357;28;20351;-61
2021/03/13 10:28:14;;;;;;;14.75;4.40;;;;;;;26.05;45.16;99128.50;5094097;28;20035;-61
2021/03/13 10:30:42;;;;;;;11.00;4.38;;;;;;;26.15;46.84;99129.66;5094315;28;20024;-61
2021/03/13 10:33:08;;;;;;;12.40;4.35;;;;;;;26.14;44.58;99136.25;5094055;28;20028;-61
2021/03/13 10:35:34;;;;;;;11.77;4.45;;;;;;;26.21;43.11;99131.38;5085366;28;20025;-61
2021/03/13 10:38:03;;;;;;;10.85;3.95;;;;;;;26.20;45.48;99132.44;5073607;28;20036;-61
2021/03/13 10:40:35;;;;;;;15.85;5.00;;;;;;;26.19;45.45;99139.03;5073580;28;20107;-61
2021/03/13 10:43:26;;;;;;;14.55;5.50;;;;;;;26.34;45.50;99130.91;5073535;28;20472;-62
2021/03/13 10:45:57;;;;;;;13.55;4.93;;;;;;;26.38;44.76;99130.16;5073568;28;20029;-62
2021/03/13 10:48:28;;;;;;;13.52;4.43;;;;;;;26.25;45.93;99124.25;5073474;28;20150;-62
2021/03/13 10:50:55;;;;;;;13.45;4.90;;;;;;;26.34;44.62;99125.38;5073238;28;20375;-62
2021/03/13 10:53:50;;;;;;;15.20;5.28;;;;;;;26.55;44.79;99124.47;5073344;28;20558;-63
2021/03/13 10:56:15;;;;;;;;;;;;;;;26.49;44.77;99131.03;5011372;28;20574;-62
2021/03/13 10:58:57;;;;;;;14.10;5.30;;;;;;;26.46;47.24;99119.72;5011552;28;19905;-61
2021/03/13 11:01:22;;;;;;;16.75;4.55;;;;;;;26.28;45.10;99118.19;5030633;28;20037;-61
2021/03/13 11:03:50;;;;;;;16.35;4.78;;;;;;;26.01;45.58;99132.03;5030921;28;20021;-62
2021/03/13 11:06:29;;;;;;;12.60;4.55;;;;;;;25.74;45.52;99127.41;5029981;28;20112;-62
2021/03/13 11:08:57;;;;;;;13.30;5.45;;;;;;;25.79;46.04;99126.59;5030416;28;20608;-62
2021/03/13 11:11:23;;;;;;;16.60;5.20;;;;;;;25.71;46.05;99127.09;5030932;28;20041;-61
2021/03/13 11:13:48;;;;;;;11.25;4.10;;;;;;;25.79;44.10;99123.84;5030723;28;20033;-62
2021/03/13 11:16:13;;;;;;;13.68;5.15;;;;;;;25.73;43.33;99124.91;5030599;28;20033;-62
2021/03/13 11:18:39;;;;;;;13.13;4.65;;;;;;;25.76;44.93;99124.38;5030740;28;20029;-62
2021/03/13 11:21:04;;;;;;;10.63;4.13;;;;;;;25.73;44.61;99119.41;5029994;28;20031;-62
2021/03/13 11:23:30;;;;;;;13.90;5.75;;;;;;;25.57;44.94;99120.31;5030818;28;20125;-62
2021/03/13 11:25:55;;;;;;;12.43;4.40;;;;;;;25.68;46.08;99122.91;5030324;28;20041;-62
2021/03/13 11:28:20;;;;;;;13.85;4.60;;;;;;;25.71;44.72;99121.59;5030533;28;20037;-62
2021/03/13 11:30:48;;;;;;;11.48;4.68;;;;;;;25.66;44.94;99118.75;5030550;28;20036;-62
2021/03/13 11:33:13;;;;;;;13.93;4.80;;;;;;;25.58;44.05;99130.22;5061517;28;20041;-61
2021/03/13 11:35:39;;;;;;;14.43;4.55;;;;;;;25.58;44.53;99127.47;5083563;28;20551;-61